sensor_id;sensor_type;location;lat;lon;timestamp;temperature;humidity
1453;DHT22;720;47.738;7.998;2023-04-25T00:01:05;7.50;99.90
1453;DHT22;720;47.738;7.998;2023-04-25T00:03:32;7.50;99.90
1453;DHT22;720;47.738;7.998;2023-04-25T00:05:58;7.50;99.90
1453;DHT22;720;47.738;7.998;2023-04-25T00:08:29;7.50;99.90
1453;DHT22;720;47.738;7.998;2023-04-25T00:10:55;7.50;99.90
1453;DHT22;720;47.738;7.998;2023-04-25T00:13:21;7.60;99.90
1453;DHT22;720;47.738;7.998;2023-04-25T00:15:47;7.60;99.90
1453;DHT22;720;47.738;7.998;2023-04-25T00:18:14;7.60;99.90
1453;DHT22;720;47.738;7.998;2023-04-25T00:20:39;7.70;99.90
1453;DHT22;720;47.738;7.998;2023-04-25T00:23:05;7.90;99.90
1453;DHT22;720;47.738;7.998;2023-04-25T00:25:31;7.60;99.90
1453;DHT22;720;47.738;7.998;2023-04-25T00:27:57;7.50;99.90
1453;DHT22;720;47.738;7.998;2023-04-25T00:30:22;7.60;99.90
1453;DHT22;720;47.738;7.998;2023-04-25T00:32:48;7.50;99.90
1453;DHT22;720;47.738;7.998;2023-04-25T00:35:14;7.50;99.90
1453;DHT22;720;47.738;7.998;2023-04-25T00:37:40;7.60;99.90
1453;DHT22;720;47.738;7.998;2023-04-25T00:40:06;7.60;99.90
1453;DHT22;720;47.738;7.998;2023-04-25T00:42:32;7.70;99.90
1453;DHT22;720;47.738;7.998;2023-04-25T00:44:59;7.70;99.90
1453;DHT22;720;47.738;7.998;2023-04-25T00:47:25;7.70;99.90
1453;DHT22;720;47.738;7.998;2023-04-25T00:49:50;7.70;99.90
1453;DHT22;720;47.738;7.998;2023-04-25T00:52:19;7.80;99.90
1453;DHT22;720;47.738;7.998;2023-04-25T00:54:45;7.80;99.90
1453;DHT22;720;47.738;7.998;2023-04-25T00:57:11;7.70;99.90
1453;DHT22;720;47.738;7.998;2023-04-25T00:59:37;7.60;99.90
1453;DHT22;720;47.738;7.998;2023-04-25T01:02:04;7.50;99.90
1453;DHT22;720;47.738;7.998;2023-04-25T01:04:30;7.50;99.90
1453;DHT22;720;47.738;7.998;2023-04-25T01:06:56;7.50;99.90
1453;DHT22;720;47.738;7.998;2023-04-25T01:09:22;7.50;99.90
1453;DHT22;720;47.738;7.998;2023-04-25T01:11:49;7.30;99.90
1453;DHT22;720;47.738;7.998;2023-04-25T01:14:14;7.20;99.90
1453;DHT22;720;47.738;7.998;2023-04-25T01:16:40;7.20;99.90
1453;DHT22;720;47.738;7.998;2023-04-25T01:19:10;7.20;99.90
1453;DHT22;720;47.738;7.998;2023-04-25T01:21:39;7.10;99.90
1453;DHT22;720;47.738;7.998;2023-04-25T01:24:05;6.90;99.90
1453;DHT22;720;47.738;7.998;2023-04-25T01:26:31;6.90;99.90
1453;DHT22;720;47.738;7.998;2023-04-25T01:28:58;6.80;99.90
1453;DHT22;720;47.738;7.998;2023-04-25T01:31:24;6.80;99.90
1453;DHT22;720;47.738;7.998;2023-04-25T01:33:50;6.70;99.90
1453;DHT22;720;47.738;7.998;2023-04-25T01:36:15;6.80;99.90
1453;DHT22;720;47.738;7.998;2023-04-25T01:38:42;6.80;99.90
1453;DHT22;720;47.738;7.998;2023-04-25T01:41:09;6.80;99.90
1453;DHT22;720;47.738;7.998;2023-04-25T01:43:35;6.80;99.90
1453;DHT22;720;47.738;7.998;2023-04-25T01:46:01;6.90;99.90
1453;DHT22;720;47.738;7.998;2023-04-25T01:48:26;7.00;99.90
1453;DHT22;720;47.738;7.998;2023-04-25T01:50:52;7.10;99.90
1453;DHT22;720;47.738;7.998;2023-04-25T01:53:18;7.20;99.90
1453;DHT22;720;47.738;7.998;2023-04-25T01:55:44;7.20;99.90
1453;DHT22;720;47.738;7.998;2023-04-25T01:58:09;7.30;99.90
1453;DHT22;720;47.738;7.998;2023-04-25T02:00:38;7.30;99.90
1453;DHT22;720;47.738;7.998;2023-04-25T02:03:05;7.50;99.90
1453;DHT22;720;47.738;7.998;2023-04-25T02:05:37;7.50;99.90
1453;DHT22;720;47.738;7.998;2023-04-25T02:08:05;7.50;99.90
1453;DHT22;720;47.738;7.998;2023-04-25T02:10:32;7.50;99.90
1453;DHT22;720;47.738;7.998;2023-04-25T02:12:58;7.70;99.90
1453;DHT22;720;47.738;7.998;2023-04-25T02:15:23;7.70;99.90
1453;DHT22;720;47.738;7.998;2023-04-25T02:17:49;7.80;99.90
1453;DHT22;720;47.738;7.998;2023-04-25T02:20:15;7.90;99.90
1453;DHT22;720;47.738;7.998;2023-04-25T02:22:45;7.90;99.90
1453;DHT22;720;47.738;7.998;2023-04-25T02:25:11;7.90;99.90
1453;DHT22;720;47.738;7.998;2023-04-25T02:27:37;7.90;99.90
1453;DHT22;720;47.738;7.998;2023-04-25T02:30:03;7.60;99.90
1453;DHT22;720;47.738;7.998;2023-04-25T02:32:30;7.60;99.90
1453;DHT22;720;47.738;7.998;2023-04-25T02:34:55;7.60;99.90
1453;DHT22;720;47.738;7.998;2023-04-25T02:37:24;7.50;99.90
1453;DHT22;720;47.738;7.998;2023-04-25T02:39:49;7.40;99.90
1453;DHT22;720;47.738;7.998;2023-04-25T02:42:15;7.30;99.90
1453;DHT22;720;47.738;7.998;2023-04-25T02:44:41;7.30;99.90
1453;DHT22;720;47.738;7.998;2023-04-25T02:47:06;7.10;99.90
1453;DHT22;720;47.738;7.998;2023-04-25T02:49:32;7.00;99.90
1453;DHT22;720;47.738;7.998;2023-04-25T02:51:57;6.90;99.90
1453;DHT22;720;47.738;7.998;2023-04-25T02:54:23;6.80;99.90
1453;DHT22;720;47.738;7.998;2023-04-25T02:56:49;6.70;99.90
1453;DHT22;720;47.738;7.998;2023-04-25T02:59:15;6.70;99.90
1453;DHT22;720;47.738;7.998;2023-04-25T03:01:40;6.70;99.90
1453;DHT22;720;47.738;7.998;2023-04-25T03:04:06;6.60;99.90
1453;DHT22;720;47.738;7.998;2023-04-25T03:06:32;6.50;99.90
1453;DHT22;720;47.738;7.998;2023-04-25T03:08:57;6.40;99.90
1453;DHT22;720;47.738;7.998;2023-04-25T03:11:25;6.40;99.90
1453;DHT22;720;47.738;7.998;2023-04-25T03:13:51;6.30;99.90
1453;DHT22;720;47.738;7.998;2023-04-25T03:16:16;6.30;99.90
1453;DHT22;720;47.738;7.998;2023-04-25T03:18:42;6.20;99.90
1453;DHT22;720;47.738;7.998;2023-04-25T03:21:08;6.10;99.90
1453;DHT22;720;47.738;7.998;2023-04-25T03:23:33;6.10;99.90
1453;DHT22;720;47.738;7.998;2023-04-25T03:25:59;6.00;99.90
1453;DHT22;720;47.738;7.998;2023-04-25T03:28:25;6.00;99.90
1453;DHT22;720;47.738;7.998;2023-04-25T03:30:50;5.90;99.90
1453;DHT22;720;47.738;7.998;2023-04-25T03:33:16;5.90;99.90
1453;DHT22;720;47.738;7.998;2023-04-25T03:35:42;6.00;99.90
1453;DHT22;720;47.738;7.998;2023-04-25T03:38:08;6.00;99.90
1453;DHT22;720;47.738;7.998;2023-04-25T03:40:33;5.90;99.90
1453;DHT22;720;47.738;7.998;2023-04-25T03:42:59;5.90;99.90
1453;DHT22;720;47.738;7.998;2023-04-25T03:45:25;5.90;99.90
1453;DHT22;720;47.738;7.998;2023-04-25T03:47:51;5.90;99.90
1453;DHT22;720;47.738;7.998;2023-04-25T03:50:16;5.90;99.90
1453;DHT22;720;47.738;7.998;2023-04-25T03:52:43;5.90;99.90
1453;DHT22;720;47.738;7.998;2023-04-25T03:55:09;5.90;99.90
1453;DHT22;720;47.738;7.998;2023-04-25T03:57:35;5.90;99.90
1453;DHT22;720;47.738;7.998;2023-04-25T04:00:01;5.90;99.90
1453;DHT22;720;47.738;7.998;2023-04-25T04:02:26;5.90;99.90
1453;DHT22;720;47.738;7.998;2023-04-25T04:04:52;5.90;99.90
1453;DHT22;720;47.738;7.998;2023-04-25T04:07:18;6.10;99.90
1453;DHT22;720;47.738;7.998;2023-04-25T04:09:43;6.10;99.90
1453;DHT22;720;47.738;7.998;2023-04-25T04:12:09;6.10;99.90
1453;DHT22;720;47.738;7.998;2023-04-25T04:14:35;6.10;99.90
1453;DHT22;720;47.738;7.998;2023-04-25T04:17:00;6.10;99.90
1453;DHT22;720;47.738;7.998;2023-04-25T04:19:26;6.20;99.90
1453;DHT22;720;47.738;7.998;2023-04-25T04:21:52;6.10;99.90
1453;DHT22;720;47.738;7.998;2023-04-25T04:24:17;6.10;99.90
1453;DHT22;720;47.738;7.998;2023-04-25T04:26:43;6.00;99.90
1453;DHT22;720;47.738;7.998;2023-04-25T04:29:10;5.90;99.90
1453;DHT22;720;47.738;7.998;2023-04-25T04:31:36;5.90;99.90
1453;DHT22;720;47.738;7.998;2023-04-25T04:34:02;6.00;99.90
1453;DHT22;720;47.738;7.998;2023-04-25T04:36:29;5.90;99.90
1453;DHT22;720;47.738;7.998;2023-04-25T04:38:54;5.90;99.90
1453;DHT22;720;47.738;7.998;2023-04-25T04:41:21;5.90;99.90
1453;DHT22;720;47.738;7.998;2023-04-25T04:43:47;5.90;99.90
1453;DHT22;720;47.738;7.998;2023-04-25T04:46:13;5.90;99.90
1453;DHT22;720;47.738;7.998;2023-04-25T04:48:39;6.00;99.90
1453;DHT22;720;47.738;7.998;2023-04-25T04:51:06;6.00;99.90
1453;DHT22;720;47.738;7.998;2023-04-25T04:53:32;6.00;99.90
1453;DHT22;720;47.738;7.998;2023-04-25T04:56:02;6.10;99.90
1453;DHT22;720;47.738;7.998;2023-04-25T04:58:28;6.20;99.90
1453;DHT22;720;47.738;7.998;2023-04-25T05:00:55;6.30;99.90
1453;DHT22;720;47.738;7.998;2023-04-25T05:03:21;6.40;99.90
1453;DHT22;720;47.738;7.998;2023-04-25T05:05:47;6.50;99.90
1453;DHT22;720;47.738;7.998;2023-04-25T05:08:12;6.60;99.90
1453;DHT22;720;47.738;7.998;2023-04-25T05:10:38;6.70;99.90
1453;DHT22;720;47.738;7.998;2023-04-25T05:13:04;6.90;99.90
1453;DHT22;720;47.738;7.998;2023-04-25T05:15:29;6.90;99.90
1453;DHT22;720;47.738;7.998;2023-04-25T05:17:55;7.10;99.90
1453;DHT22;720;47.738;7.998;2023-04-25T05:20:20;7.60;99.90
1453;DHT22;720;47.738;7.998;2023-04-25T05:22:46;8.40;99.90
1453;DHT22;720;47.738;7.998;2023-04-25T05:25:12;9.30;99.90
1453;DHT22;720;47.738;7.998;2023-04-25T05:27:37;10.10;99.90
1453;DHT22;720;47.738;7.998;2023-04-25T05:30:03;10.70;99.30
1453;DHT22;720;47.738;7.998;2023-04-25T05:32:30;11.20;96.90
1453;DHT22;720;47.738;7.998;2023-04-25T05:34:56;11.00;94.00
1453;DHT22;720;47.738;7.998;2023-04-25T05:37:21;10.50;93.20
1453;DHT22;720;47.738;7.998;2023-04-25T05:39:47;9.90;93.70
1453;DHT22;720;47.738;7.998;2023-04-25T05:42:13;9.00;94.70
1453;DHT22;720;47.738;7.998;2023-04-25T05:44:38;8.30;96.10
1453;DHT22;720;47.738;7.998;2023-04-25T05:47:04;7.90;96.60
1453;DHT22;720;47.738;7.998;2023-04-25T05:49:30;7.20;97.50
1453;DHT22;720;47.738;7.998;2023-04-25T05:51:56;6.90;98.00
1453;DHT22;720;47.738;7.998;2023-04-25T05:54:21;6.30;97.90
1453;DHT22;720;47.738;7.998;2023-04-25T05:56:47;6.00;98.80
1453;DHT22;720;47.738;7.998;2023-04-25T05:59:12;5.90;99.60
1453;DHT22;720;47.738;7.998;2023-04-25T06:01:38;5.80;99.60
1453;DHT22;720;47.738;7.998;2023-04-25T06:04:04;5.70;99.50
1453;DHT22;720;47.738;7.998;2023-04-25T06:06:29;5.60;99.60
1453;DHT22;720;47.738;7.998;2023-04-25T06:08:55;5.50;99.80
1453;DHT22;720;47.738;7.998;2023-04-25T06:11:21;5.50;99.90
1453;DHT22;720;47.738;7.998;2023-04-25T06:13:47;5.40;99.90
1453;DHT22;720;47.738;7.998;2023-04-25T06:16:13;5.40;99.90
1453;DHT22;720;47.738;7.998;2023-04-25T06:18:39;5.40;99.90
1453;DHT22;720;47.738;7.998;2023-04-25T06:21:04;5.40;99.90
1453;DHT22;720;47.738;7.998;2023-04-25T06:23:30;5.40;99.90
1453;DHT22;720;47.738;7.998;2023-04-25T06:25:55;5.40;99.90
1453;DHT22;720;47.738;7.998;2023-04-25T06:28:21;5.50;99.90
1453;DHT22;720;47.738;7.998;2023-04-25T06:30:47;5.60;99.90
1453;DHT22;720;47.738;7.998;2023-04-25T06:33:13;5.70;99.90
1453;DHT22;720;47.738;7.998;2023-04-25T06:35:39;5.70;99.90
1453;DHT22;720;47.738;7.998;2023-04-25T06:38:04;5.70;99.80
1453;DHT22;720;47.738;7.998;2023-04-25T06:40:30;5.80;99.90
1453;DHT22;720;47.738;7.998;2023-04-25T06:42:56;5.90;99.90
1453;DHT22;720;47.738;7.998;2023-04-25T06:45:21;5.90;99.70
1453;DHT22;720;47.738;7.998;2023-04-25T06:47:47;6.00;99.40
1453;DHT22;720;47.738;7.998;2023-04-25T06:50:12;6.10;99.30
1453;DHT22;720;47.738;7.998;2023-04-25T06:52:38;6.20;99.90
1453;DHT22;720;47.738;7.998;2023-04-25T06:55:05;7.10;99.90
1453;DHT22;720;47.738;7.998;2023-04-25T06:57:31;8.20;99.90
1453;DHT22;720;47.738;7.998;2023-04-25T06:59:56;9.20;99.90
1453;DHT22;720;47.738;7.998;2023-04-25T07:02:22;9.50;98.70
1453;DHT22;720;47.738;7.998;2023-04-25T07:04:48;9.30;94.90
1453;DHT22;720;47.738;7.998;2023-04-25T07:07:13;8.80;93.50
1453;DHT22;720;47.738;7.998;2023-04-25T07:09:39;8.40;93.50
1453;DHT22;720;47.738;7.998;2023-04-25T07:12:05;7.90;94.20
1453;DHT22;720;47.738;7.998;2023-04-25T07:14:30;7.50;94.60
1453;DHT22;720;47.738;7.998;2023-04-25T07:16:56;7.20;95.20
1453;DHT22;720;47.738;7.998;2023-04-25T07:19:22;6.90;95.70
1453;DHT22;720;47.738;7.998;2023-04-25T07:21:52;6.70;96.20
1453;DHT22;720;47.738;7.998;2023-04-25T07:24:17;6.50;96.70
1453;DHT22;720;47.738;7.998;2023-04-25T07:26:43;6.40;97.40
1453;DHT22;720;47.738;7.998;2023-04-25T07:29:09;6.40;98.10
1453;DHT22;720;47.738;7.998;2023-04-25T07:31:35;6.50;98.30
1453;DHT22;720;47.738;7.998;2023-04-25T07:34:01;6.60;98.50
1453;DHT22;720;47.738;7.998;2023-04-25T07:36:26;6.60;98.30
1453;DHT22;720;47.738;7.998;2023-04-25T07:38:52;6.70;98.50
1453;DHT22;720;47.738;7.998;2023-04-25T07:41:18;6.70;98.40
1453;DHT22;720;47.738;7.998;2023-04-25T07:43:43;6.70;98.80
1453;DHT22;720;47.738;7.998;2023-04-25T07:46:09;6.70;99.00
1453;DHT22;720;47.738;7.998;2023-04-25T07:48:35;6.70;99.10
1453;DHT22;720;47.738;7.998;2023-04-25T07:51:00;6.70;99.10
1453;DHT22;720;47.738;7.998;2023-04-25T07:53:26;6.80;99.50
1453;DHT22;720;47.738;7.998;2023-04-25T07:55:51;6.80;99.60
1453;DHT22;720;47.738;7.998;2023-04-25T07:58:17;6.80;99.70
1453;DHT22;720;47.738;7.998;2023-04-25T08:00:46;6.70;99.60
1453;DHT22;720;47.738;7.998;2023-04-25T08:03:12;6.80;99.90
1453;DHT22;720;47.738;7.998;2023-04-25T08:05:38;7.10;99.90
1453;DHT22;720;47.738;7.998;2023-04-25T08:08:04;7.30;99.90
1453;DHT22;720;47.738;7.998;2023-04-25T08:10:32;7.40;99.40
1453;DHT22;720;47.738;7.998;2023-04-25T08:12:59;7.70;99.90
1453;DHT22;720;47.738;7.998;2023-04-25T08:15:25;7.60;99.20
1453;DHT22;720;47.738;7.998;2023-04-25T08:17:50;7.60;99.00
1453;DHT22;720;47.738;7.998;2023-04-25T08:20:16;7.50;98.70
1453;DHT22;720;47.738;7.998;2023-04-25T08:22:42;7.60;98.60
1453;DHT22;720;47.738;7.998;2023-04-25T08:25:08;7.60;98.40
1453;DHT22;720;47.738;7.998;2023-04-25T08:27:33;7.50;98.90
1453;DHT22;720;47.738;7.998;2023-04-25T08:30:00;7.40;99.30
1453;DHT22;720;47.738;7.998;2023-04-25T08:32:26;7.50;99.60
1453;DHT22;720;47.738;7.998;2023-04-25T08:34:52;7.50;99.60
1453;DHT22;720;47.738;7.998;2023-04-25T08:37:19;7.40;99.60
1453;DHT22;720;47.738;7.998;2023-04-25T08:39:46;7.50;99.90
1453;DHT22;720;47.738;7.998;2023-04-25T08:42:15;7.70;99.80
1453;DHT22;720;47.738;7.998;2023-04-25T08:44:40;7.90;99.90
1453;DHT22;720;47.738;7.998;2023-04-25T08:47:06;8.00;98.90
1453;DHT22;720;47.738;7.998;2023-04-25T08:49:33;8.30;99.30
1453;DHT22;720;47.738;7.998;2023-04-25T08:52:04;8.70;99.20
1453;DHT22;720;47.738;7.998;2023-04-25T08:54:32;9.00;98.20
1453;DHT22;720;47.738;7.998;2023-04-25T08:57:01;9.10;97.10
1453;DHT22;720;47.738;7.998;2023-04-25T08:59:27;8.90;97.30
1453;DHT22;720;47.738;7.998;2023-04-25T09:01:53;9.40;98.70
1453;DHT22;720;47.738;7.998;2023-04-25T09:04:20;10.20;99.90
1453;DHT22;720;47.738;7.998;2023-04-25T09:06:47;10.20;94.60
1453;DHT22;720;47.738;7.998;2023-04-25T09:09:13;10.60;94.40
1453;DHT22;720;47.738;7.998;2023-04-25T09:11:39;10.70;94.30
1453;DHT22;720;47.738;7.998;2023-04-25T09:16:59;10.60;93.60
1453;DHT22;720;47.738;7.998;2023-04-25T09:19:26;10.00;93.60
1453;DHT22;720;47.738;7.998;2023-04-25T09:21:55;9.90;94.90
1453;DHT22;720;47.738;7.998;2023-04-25T09:24:31;9.80;95.90
1453;DHT22;720;47.738;7.998;2023-04-25T09:26:57;9.70;95.80
1453;DHT22;720;47.738;7.998;2023-04-25T09:29:32;9.90;95.70
1453;DHT22;720;47.738;7.998;2023-04-25T09:34:42;10.00;95.00
1453;DHT22;720;47.738;7.998;2023-04-25T09:37:11;10.10;94.40
1453;DHT22;720;47.738;7.998;2023-04-25T09:39:38;10.10;95.00
1453;DHT22;720;47.738;7.998;2023-04-25T09:42:05;9.70;94.10
1453;DHT22;720;47.738;7.998;2023-04-25T09:44:31;9.00;95.20
1453;DHT22;720;47.738;7.998;2023-04-25T09:46:57;9.00;96.40
1453;DHT22;720;47.738;7.998;2023-04-25T09:49:23;8.90;96.80
1453;DHT22;720;47.738;7.998;2023-04-25T09:51:58;8.80;96.70
1453;DHT22;720;47.738;7.998;2023-04-25T09:54:24;8.90;96.70
1453;DHT22;720;47.738;7.998;2023-04-25T09:56:52;9.60;96.90
1453;DHT22;720;47.738;7.998;2023-04-25T09:59:21;10.50;96.60
1453;DHT22;720;47.738;7.998;2023-04-25T10:01:50;11.30;93.60
1453;DHT22;720;47.738;7.998;2023-04-25T10:04:24;12.10;92.10
1453;DHT22;720;47.738;7.998;2023-04-25T10:06:53;12.40;91.70
1453;DHT22;720;47.738;7.998;2023-04-25T10:09:25;12.40;91.70
1453;DHT22;720;47.738;7.998;2023-04-25T10:11:52;12.40;90.60
1453;DHT22;720;47.738;7.998;2023-04-25T10:14:19;11.90;89.90
1453;DHT22;720;47.738;7.998;2023-04-25T10:16:45;11.30;90.50
1453;DHT22;720;47.738;7.998;2023-04-25T10:19:12;11.00;91.70
1453;DHT22;720;47.738;7.998;2023-04-25T10:24:31;10.70;92.90
1453;DHT22;720;47.738;7.998;2023-04-25T10:26:57;11.10;92.10
1453;DHT22;720;47.738;7.998;2023-04-25T10:29:26;11.60;92.30
1453;DHT22;720;47.738;7.998;2023-04-25T10:31:52;12.50;91.50
1453;DHT22;720;47.738;7.998;2023-04-25T10:34:18;13.60;90.10
1453;DHT22;720;47.738;7.998;2023-04-25T10:36:50;14.70;89.00
1453;DHT22;720;47.738;7.998;2023-04-25T10:39:25;15.50;83.00
1453;DHT22;720;47.738;7.998;2023-04-25T10:41:58;15.70;82.80
1453;DHT22;720;47.738;7.998;2023-04-25T10:44:31;16.00;80.20
1453;DHT22;720;47.738;7.998;2023-04-25T10:46:58;16.20;79.20
1453;DHT22;720;47.738;7.998;2023-04-25T10:49:35;16.20;77.20
1453;DHT22;720;47.738;7.998;2023-04-25T10:52:18;16.20;76.10
1453;DHT22;720;47.738;7.998;2023-04-25T10:54:52;16.00;76.90
1453;DHT22;720;47.738;7.998;2023-04-25T10:57:50;15.20;73.50
1453;DHT22;720;47.738;7.998;2023-04-25T11:00:18;15.00;81.60
1453;DHT22;720;47.738;7.998;2023-04-25T11:02:58;15.00;79.70
1453;DHT22;720;47.738;7.998;2023-04-25T11:05:32;14.40;77.30
1453;DHT22;720;47.738;7.998;2023-04-25T11:07:59;13.50;80.00
1453;DHT22;720;47.738;7.998;2023-04-25T11:10:31;12.60;78.50
1453;DHT22;720;47.738;7.998;2023-04-25T11:12:58;11.80;94.10
1453;DHT22;720;47.738;7.998;2023-04-25T11:15:25;11.90;84.60
1453;DHT22;720;47.738;7.998;2023-04-25T11:17:54;11.70;86.70
1453;DHT22;720;47.738;7.998;2023-04-25T11:20:21;11.70;89.40
1453;DHT22;720;47.738;7.998;2023-04-25T11:22:47;11.80;88.90
1453;DHT22;720;47.738;7.998;2023-04-25T11:25:15;11.90;88.20
1453;DHT22;720;47.738;7.998;2023-04-25T11:30:17;12.00;88.80
1453;DHT22;720;47.738;7.998;2023-04-25T11:32:43;12.60;87.30
1453;DHT22;720;47.738;7.998;2023-04-25T11:35:10;12.80;82.40
1453;DHT22;720;47.738;7.998;2023-04-25T11:37:36;12.80;82.90
1453;DHT22;720;47.738;7.998;2023-04-25T11:40:05;12.40;82.60
1453;DHT22;720;47.738;7.998;2023-04-25T11:42:32;12.10;85.10
1453;DHT22;720;47.738;7.998;2023-04-25T11:44:58;11.90;84.80
1453;DHT22;720;47.738;7.998;2023-04-25T11:47:31;11.80;85.00
1453;DHT22;720;47.738;7.998;2023-04-25T11:50:03;11.60;85.50
1453;DHT22;720;47.738;7.998;2023-04-25T11:52:39;11.60;86.70
1453;DHT22;720;47.738;7.998;2023-04-25T11:55:07;11.60;90.00
1453;DHT22;720;47.738;7.998;2023-04-25T11:57:33;11.50;88.60
1453;DHT22;720;47.738;7.998;2023-04-25T12:00:13;11.50;88.90
1453;DHT22;720;47.738;7.998;2023-04-25T12:02:41;11.80;90.50
1453;DHT22;720;47.738;7.998;2023-04-25T12:05:08;12.20;90.20
1453;DHT22;720;47.738;7.998;2023-04-25T12:07:34;12.40;88.80
1453;DHT22;720;47.738;7.998;2023-04-25T12:10:07;12.50;84.30
1453;DHT22;720;47.738;7.998;2023-04-25T12:12:34;12.40;84.80
1453;DHT22;720;47.738;7.998;2023-04-25T12:15:24;12.30;87.30
1453;DHT22;720;47.738;7.998;2023-04-25T12:17:52;12.30;87.80
1453;DHT22;720;47.738;7.998;2023-04-25T12:20:21;12.20;86.50
1453;DHT22;720;47.738;7.998;2023-04-25T12:22:49;12.10;87.20
1453;DHT22;720;47.738;7.998;2023-04-25T12:25:43;12.00;87.70
1453;DHT22;720;47.738;7.998;2023-04-25T12:28:21;11.80;87.30
1453;DHT22;720;47.738;7.998;2023-04-25T12:31:06;11.30;88.20
1453;DHT22;720;47.738;7.998;2023-04-25T12:33:38;10.80;90.40
1453;DHT22;720;47.738;7.998;2023-04-25T12:36:05;10.60;97.20
1453;DHT22;720;47.738;7.998;2023-04-25T12:38:40;10.60;92.20
1453;DHT22;720;47.738;7.998;2023-04-25T12:41:06;10.40;92.30
1453;DHT22;720;47.738;7.998;2023-04-25T12:43:32;11.00;92.80
1453;DHT22;720;47.738;7.998;2023-04-25T12:45:58;10.60;91.70
1453;DHT22;720;47.738;7.998;2023-04-25T12:48:24;10.80;92.60
1453;DHT22;720;47.738;7.998;2023-04-25T12:50:50;11.10;92.00
1453;DHT22;720;47.738;7.998;2023-04-25T12:53:18;11.20;91.10
1453;DHT22;720;47.738;7.998;2023-04-25T12:55:44;11.30;91.20
1453;DHT22;720;47.738;7.998;2023-04-25T12:58:17;11.40;90.70
1453;DHT22;720;47.738;7.998;2023-04-25T13:00:44;11.70;90.60
1453;DHT22;720;47.738;7.998;2023-04-25T13:03:10;12.10;90.40
1453;DHT22;720;47.738;7.998;2023-04-25T13:05:36;12.60;91.90
1453;DHT22;720;47.738;7.998;2023-04-25T13:08:02;13.00;90.10
1453;DHT22;720;47.738;7.998;2023-04-25T13:10:28;12.80;86.00
1453;DHT22;720;47.738;7.998;2023-04-25T13:12:54;12.80;89.60
1453;DHT22;720;47.738;7.998;2023-04-25T13:15:20;12.60;86.40
1453;DHT22;720;47.738;7.998;2023-04-25T13:17:46;12.70;86.50
1453;DHT22;720;47.738;7.998;2023-04-25T13:20:12;12.80;84.40
1453;DHT22;720;47.738;7.998;2023-04-25T13:22:39;12.80;84.30
1453;DHT22;720;47.738;7.998;2023-04-25T13:25:05;12.60;84.30
1453;DHT22;720;47.738;7.998;2023-04-25T13:27:32;12.60;86.10
1453;DHT22;720;47.738;7.998;2023-04-25T13:30:00;12.80;89.00
1453;DHT22;720;47.738;7.998;2023-04-25T13:32:26;12.80;87.50
1453;DHT22;720;47.738;7.998;2023-04-25T13:34:53;12.90;87.00
1453;DHT22;720;47.738;7.998;2023-04-25T13:37:19;12.90;84.60
1453;DHT22;720;47.738;7.998;2023-04-25T13:39:44;13.00;83.70
1453;DHT22;720;47.738;7.998;2023-04-25T13:42:10;12.80;84.10
1453;DHT22;720;47.738;7.998;2023-04-25T13:44:36;12.40;85.40
1453;DHT22;720;47.738;7.998;2023-04-25T13:47:02;11.90;90.60
1453;DHT22;720;47.738;7.998;2023-04-25T13:49:28;11.20;91.00
1453;DHT22;720;47.738;7.998;2023-04-25T13:51:53;10.70;89.80
1453;DHT22;720;47.738;7.998;2023-04-25T13:54:19;10.20;90.80
1453;DHT22;720;47.738;7.998;2023-04-25T13:56:45;9.70;91.50
1453;DHT22;720;47.738;7.998;2023-04-25T13:59:11;9.40;92.00
1453;DHT22;720;47.738;7.998;2023-04-25T14:01:36;9.00;92.00
1453;DHT22;720;47.738;7.998;2023-04-25T14:04:02;8.40;92.30
1453;DHT22;720;47.738;7.998;2023-04-25T14:06:32;8.00;93.50
1453;DHT22;720;47.738;7.998;2023-04-25T14:08:58;7.60;94.70
1453;DHT22;720;47.738;7.998;2023-04-25T14:11:26;7.50;96.80
1453;DHT22;720;47.738;7.998;2023-04-25T14:13:52;7.70;97.40
1453;DHT22;720;47.738;7.998;2023-04-25T14:16:17;7.90;97.60
1453;DHT22;720;47.738;7.998;2023-04-25T14:18:43;8.20;98.10
1453;DHT22;720;47.738;7.998;2023-04-25T14:21:08;8.50;97.70
1453;DHT22;720;47.738;7.998;2023-04-25T14:23:35;8.80;97.60
1453;DHT22;720;47.738;7.998;2023-04-25T14:26:01;9.10;97.30
1453;DHT22;720;47.738;7.998;2023-04-25T14:28:26;9.20;96.60
1453;DHT22;720;47.738;7.998;2023-04-25T14:30:52;9.10;95.80
1453;DHT22;720;47.738;7.998;2023-04-25T14:33:18;8.90;96.40
1453;DHT22;720;47.738;7.998;2023-04-25T14:35:43;8.60;97.00
1453;DHT22;720;47.738;7.998;2023-04-25T14:38:09;8.30;97.20
1453;DHT22;720;47.738;7.998;2023-04-25T14:40:35;8.30;97.90
1453;DHT22;720;47.738;7.998;2023-04-25T14:43:00;8.40;99.90
1453;DHT22;720;47.738;7.998;2023-04-25T14:45:26;8.50;99.90
1453;DHT22;720;47.738;7.998;2023-04-25T14:47:51;8.60;99.50
1453;DHT22;720;47.738;7.998;2023-04-25T14:50:17;8.80;99.90
1453;DHT22;720;47.738;7.998;2023-04-25T14:52:43;9.20;99.80
1453;DHT22;720;47.738;7.998;2023-04-25T14:55:10;9.40;99.10
1453;DHT22;720;47.738;7.998;2023-04-25T14:57:36;9.50;98.30
1453;DHT22;720;47.738;7.998;2023-04-25T15:00:02;9.70;97.10
1453;DHT22;720;47.738;7.998;2023-04-25T15:02:30;9.60;97.10
1453;DHT22;720;47.738;7.998;2023-04-25T15:04:56;9.70;97.50
1453;DHT22;720;47.738;7.998;2023-04-25T15:07:22;9.60;97.70
1453;DHT22;720;47.738;7.998;2023-04-25T15:09:48;9.60;98.50
1453;DHT22;720;47.738;7.998;2023-04-25T15:12:14;9.50;98.30
1453;DHT22;720;47.738;7.998;2023-04-25T15:14:40;9.50;98.50
1453;DHT22;720;47.738;7.998;2023-04-25T15:17:05;9.30;99.00
1453;DHT22;720;47.738;7.998;2023-04-25T15:19:31;9.20;99.20
1453;DHT22;720;47.738;7.998;2023-04-25T15:21:58;9.10;99.50
1453;DHT22;720;47.738;7.998;2023-04-25T15:24:26;9.10;99.70
1453;DHT22;720;47.738;7.998;2023-04-25T15:26:52;9.20;99.90
1453;DHT22;720;47.738;7.998;2023-04-25T15:29:17;8.90;99.50
1453;DHT22;720;47.738;7.998;2023-04-25T15:31:43;8.70;99.90
1453;DHT22;720;47.738;7.998;2023-04-25T15:34:09;8.50;99.90
1453;DHT22;720;47.738;7.998;2023-04-25T15:36:34;8.50;99.90
1453;DHT22;720;47.738;7.998;2023-04-25T15:39:00;8.40;99.90
1453;DHT22;720;47.738;7.998;2023-04-25T15:41:26;8.30;99.90
1453;DHT22;720;47.738;7.998;2023-04-25T15:43:52;8.30;99.90
1453;DHT22;720;47.738;7.998;2023-04-25T15:46:18;8.30;99.90
1453;DHT22;720;47.738;7.998;2023-04-25T15:48:44;8.30;99.90
1453;DHT22;720;47.738;7.998;2023-04-25T15:51:10;8.30;99.90
1453;DHT22;720;47.738;7.998;2023-04-25T15:53:36;8.10;99.70
1453;DHT22;720;47.738;7.998;2023-04-25T15:56:01;7.70;99.90
1453;DHT22;720;47.738;7.998;2023-04-25T15:58:28;7.30;99.90
1453;DHT22;720;47.738;7.998;2023-04-25T16:00:54;7.30;99.90
1453;DHT22;720;47.738;7.998;2023-04-25T16:03:21;7.60;99.90
1453;DHT22;720;47.738;7.998;2023-04-25T16:05:48;7.80;99.90
1453;DHT22;720;47.738;7.998;2023-04-25T16:08:13;7.90;99.90
1453;DHT22;720;47.738;7.998;2023-04-25T16:10:39;7.70;99.60
1453;DHT22;720;47.738;7.998;2023-04-25T16:13:05;7.50;99.90
1453;DHT22;720;47.738;7.998;2023-04-25T16:15:30;7.50;99.90
1453;DHT22;720;47.738;7.998;2023-04-25T16:17:57;8.70;99.90
1453;DHT22;720;47.738;7.998;2023-04-25T16:20:22;7.80;99.90
1453;DHT22;720;47.738;7.998;2023-04-25T16:22:48;8.00;99.90
1453;DHT22;720;47.738;7.998;2023-04-25T16:25:13;8.00;99.90
1453;DHT22;720;47.738;7.998;2023-04-25T16:27:39;8.20;99.90
1453;DHT22;720;47.738;7.998;2023-04-25T16:30:07;8.20;99.90
1453;DHT22;720;47.738;7.998;2023-04-25T16:32:33;8.30;99.90
1453;DHT22;720;47.738;7.998;2023-04-25T16:34:59;8.50;99.90
1453;DHT22;720;47.738;7.998;2023-04-25T16:37:25;8.80;99.90